Time;durP1;ratioP1;P1;durP2;ratioP2;P2;SDS_P1;SDS_P2;PMS_P1;PMS_P2;Temp;Humidity;BMP_temperature;BMP_pressure;BME280_temperature;BME280_humidity;BME280_pressure;Samples;Min_cycle;Max_cycle;Signal;HPM_P1;HPM_P2
2023/12/25 00:00:47;;;;;;;3.10;0.88;;;10.10;99.90;;;;;;4874651;29;20053;-62
2023/12/25 00:03:15;;;;;;;7.97;0.82;;;10.10;99.90;;;;;;4856448;29;20076;-62
2023/12/25 00:05:43;;;;;;;2.70;0.60;;;10.00;99.90;;;;;;4851587;29;20045;-62
2023/12/25 00:08:12;;;;;;;2.75;0.65;;;10.00;99.90;;;;;;4858251;29;20053;-64
2023/12/25 00:10:40;;;;;;;6.32;0.60;;;10.00;99.90;;;;;;4871963;29;20069;-62
2023/12/25 00:13:07;;;;;;;9.25;0.90;;;10.00;99.90;;;;;;4858087;29;20053;-62
2023/12/25 00:15:35;;;;;;;8.05;1.00;;;10.10;99.90;;;;;;4857746;29;20057;-62
2023/12/25 00:18:03;;;;;;;4.88;0.52;;;10.10;99.90;;;;;;4872323;29;20428;-62
2023/12/25 00:20:31;;;;;;;5.03;0.57;;;10.10;99.90;;;;;;4864580;29;20049;-62
2023/12/25 00:23:00;;;;;;;6.22;0.75;;;10.10;99.90;;;;;;4866109;29;20042;-62
2023/12/25 00:25:27;;;;;;;5.65;0.85;;;10.10;99.90;;;;;;4872827;29;20068;-63
2023/12/25 00:27:56;;;;;;;6.72;1.33;;;10.10;99.90;;;;;;4871543;29;20411;-62
2023/12/25 00:30:24;;;;;;;3.30;1.00;;;10.10;99.90;;;;;;4855353;29;20515;-62
2023/12/25 00:32:52;;;;;;;3.85;0.40;;;10.10;99.90;;;;;;4861842;29;20064;-63
2023/12/25 00:35:20;;;;;;;6.20;0.90;;;10.20;99.90;;;;;;4872733;29;20056;-65
2023/12/25 00:37:48;;;;;;;5.45;0.60;;;10.20;99.90;;;;;;4873444;29;20052;-62
2023/12/25 00:40:16;;;;;;;2.20;0.55;;;10.30;99.90;;;;;;4873620;29;20045;-63
2023/12/25 00:42:43;;;;;;;3.58;0.50;;;10.30;99.90;;;;;;4872562;29;20053;-64
2023/12/25 00:45:11;;;;;;;2.10;0.77;;;10.30;99.90;;;;;;4862863;29;20045;-69
2023/12/25 00:47:40;;;;;;;5.63;0.98;;;10.30;99.90;;;;;;4857255;29;20071;-63
2023/12/25 00:50:08;;;;;;;3.03;0.52;;;10.30;99.90;;;;;;4865472;29;20049;-62
2023/12/25 00:52:36;;;;;;;5.50;0.80;;;10.30;99.90;;;;;;4872514;29;20049;-62
2023/12/25 00:55:06;;;;;;;6.18;1.15;;;10.30;99.90;;;;;;4858780;29;20405;-62
2023/12/25 00:57:35;;;;;;;7.70;1.05;;;10.20;99.90;;;;;;4839547;29;20406;-63
2023/12/25 01:00:04;;;;;;;5.00;0.90;;;10.20;99.90;;;;;;4856486;29;20053;-61
2023/12/25 01:02:33;;;;;;;5.63;0.57;;;10.20;99.90;;;;;;4851755;29;20049;-62
2023/12/25 01:05:05;;;;;;;3.10;0.57;;;10.20;99.90;;;;;;4852543;29;20570;-63
2023/12/25 01:07:34;;;;;;;6.57;0.85;;;10.20;99.90;;;;;;4867025;29;20386;-62
2023/12/25 01:10:03;;;;;;;5.70;0.90;;;10.20;99.90;;;;;;4856148;29;20486;-62
2023/12/25 01:12:31;;;;;;;1.48;0.68;;;10.20;99.90;;;;;;4854767;29;20057;-67
2023/12/25 01:15:01;;;;;;;5.30;0.90;;;10.20;99.90;;;;;;4864405;29;20061;-63
2023/12/25 01:17:30;;;;;;;9.90;1.00;;;10.10;99.90;;;;;;4869312;29;20053;-64
2023/12/25 01:20:01;;;;;;;5.22;1.13;;;10.10;99.90;;;;;;4860831;29;20082;-67
2023/12/25 01:22:30;;;;;;;10.18;0.80;;;10.10;99.90;;;;;;4857840;29;20068;-72
2023/12/25 01:24:58;;;;;;;4.10;1.08;;;10.10;99.90;;;;;;4860530;29;20064;-72
2023/12/25 01:27:26;;;;;;;3.65;0.70;;;10.10;99.90;;;;;;4854584;29;20045;-66
2023/12/25 01:29:54;;;;;;;5.15;0.90;;;10.10;99.90;;;;;;4870385;29;20406;-70
2023/12/25 01:32:22;;;;;;;4.85;0.80;;;10.00;99.90;;;;;;4873087;29;20049;-64
2023/12/25 01:34:50;;;;;;;9.55;0.93;;;10.00;99.90;;;;;;4872275;29;20509;-63
2023/12/25 01:37:18;;;;;;;3.80;0.75;;;10.00;99.90;;;;;;4875968;29;20052;-65
2023/12/25 01:39:49;;;;;;;4.75;0.90;;;10.00;99.90;;;;;;4876426;29;20049;-64
2023/12/25 01:42:17;;;;;;;3.17;1.23;;;10.00;99.90;;;;;;4862246;29;20057;-63
2023/12/25 01:44:47;;;;;;;6.50;1.08;;;10.00;99.90;;;;;;4862633;29;20057;-63
2023/12/25 01:47:17;;;;;;;5.72;0.88;;;10.00;99.90;;;;;;4860883;29;20058;-63
2023/12/25 01:49:45;;;;;;;8.70;0.98;;;10.00;99.90;;;;;;4873816;29;20041;-65
2023/12/25 01:52:13;;;;;;;6.90;0.95;;;10.00;99.90;;;;;;4872697;29;20490;-65
2023/12/25 01:54:43;;;;;;;7.22;1.23;;;10.10;99.90;;;;;;4871937;29;20045;-66
2023/12/25 01:57:12;;;;;;;3.15;0.50;;;10.10;99.90;;;;;;4872727;29;20049;-63
2023/12/25 01:59:40;;;;;;;6.20;0.80;;;10.10;99.90;;;;;;4873806;29;20060;-66
2023/12/25 02:02:08;;;;;;;10.38;1.50;;;10.10;99.90;;;;;;4876075;29;20060;-62
2023/12/25 02:04:36;;;;;;;4.22;0.68;;;10.10;99.90;;;;;;4876844;29;20049;-63
2023/12/25 02:07:05;;;;;;;4.47;0.70;;;10.10;99.90;;;;;;4876389;29;20044;-62
2023/12/25 02:09:32;;;;;;;6.70;1.10;;;10.10;99.90;;;;;;4877019;29;20049;-63
2023/12/25 02:12:00;;;;;;;7.20;0.93;;;10.10;99.90;;;;;;4875553;29;20528;-62
2023/12/25 02:14:28;;;;;;;6.13;1.00;;;10.10;99.90;;;;;;4872752;29;20063;-63
2023/12/25 02:16:57;;;;;;;15.95;1.35;;;10.10;99.90;;;;;;4863588;29;20056;-62
2023/12/25 02:19:37;;;;;;;11.10;1.88;;;10.10;99.90;;;;;;4859499;29;20336;-62
2023/12/25 02:22:07;;;;;;;7.93;1.35;;;10.10;99.90;;;;;;4868829;29;20049;-62
2023/12/25 02:24:36;;;;;;;;;;;10.10;99.90;;;;;;4858547;29;20061;-62
2023/12/25 02:27:05;;;;;;;9.80;1.10;;;10.00;99.90;;;;;;4858664;29;20284;-62
2023/12/25 02:29:34;;;;;;;6.78;1.10;;;10.00;99.90;;;;;;4874108;29;20060;-62
2023/12/25 02:32:02;;;;;;;15.60;1.65;;;9.90;99.90;;;;;;4862809;29;20049;-62
2023/12/25 02:34:29;;;;;;;7.85;1.10;;;9.90;99.90;;;;;;4873545;29;20482;-62
2023/12/25 02:36:58;;;;;;;10.18;1.38;;;9.80;99.90;;;;;;4878695;29;20067;-60
2023/12/25 02:39:26;;;;;;;14.88;1.55;;;9.70;99.90;;;;;;4863847;29;20529;-61
2023/12/25 02:41:54;;;;;;;7.35;1.65;;;9.70;99.90;;;;;;4859564;29;20072;-62
2023/12/25 02:44:23;;;;;;;5.55;0.77;;;9.70;99.90;;;;;;4868087;29;20060;-61
2023/12/25 02:46:51;;;;;;;8.10;1.40;;;9.70;99.90;;;;;;4872402;29;20053;-63
2023/12/25 02:49:19;;;;;;;10.98;1.30;;;9.60;99.90;;;;;;4865000;29;20053;-61
2023/12/25 02:51:48;;;;;;;3.40;0.63;;;9.70;99.90;;;;;;4859105;29;20052;-64
2023/12/25 02:54:16;;;;;;;6.80;1.08;;;9.60;99.90;;;;;;4874783;29;20244;-62
2023/12/25 02:56:44;;;;;;;7.30;0.77;;;9.60;99.90;;;;;;4859902;29;20076;-62
2023/12/25 02:59:12;;;;;;;6.38;0.98;;;9.60;99.90;;;;;;4860598;29;20061;-62
2023/12/25 03:01:40;;;;;;;3.78;0.93;;;9.60;99.90;;;;;;4858078;29;20505;-61
2023/12/25 03:04:07;;;;;;;9.15;1.17;;;9.60;99.90;;;;;;4859259;29;20050;-65
2023/12/25 03:06:35;;;;;;;7.20;0.88;;;9.50;99.90;;;;;;4861472;29;20045;-62
2023/12/25 03:09:03;;;;;;;6.82;0.90;;;9.50;99.90;;;;;;4860669;29;20510;-62
2023/12/25 03:11:31;;;;;;;7.53;0.95;;;9.50;99.90;;;;;;4864820;29;20061;-64
2023/12/25 03:14:00;;;;;;;7.03;0.82;;;9.50;99.90;;;;;;4867158;29;20053;-62
2023/12/25 03:16:28;;;;;;;6.60;1.50;;;9.50;99.90;;;;;;4865064;29;20656;-61
2023/12/25 03:18:57;;;;;;;3.95;0.70;;;9.50;99.90;;;;;;4859477;29;20056;-61
2023/12/25 03:21:26;;;;;;;10.68;1.13;;;9.60;99.90;;;;;;4857784;29;20066;-62
2023/12/25 03:23:54;;;;;;;6.47;0.65;;;9.60;99.90;;;;;;4869185;29;20048;-61
2023/12/25 03:26:22;;;;;;;11.35;1.08;;;9.60;99.90;;;;;;4871474;29;20422;-62
2023/12/25 03:28:49;;;;;;;7.50;1.40;;;9.60;99.90;;;;;;4860415;29;20057;-63
2023/12/25 03:31:18;;;;;;;2.95;0.82;;;9.60;99.90;;;;;;4870407;29;20053;-62
2023/12/25 03:33:47;;;;;;;12.10;1.92;;;9.50;99.90;;;;;;4858691;29;20565;-61
2023/12/25 03:36:15;;;;;;;8.02;1.33;;;9.50;99.90;;;;;;4877984;29;20414;-62
2023/12/25 03:38:43;;;;;;;5.47;1.20;;;9.50;99.90;;;;;;4878618;29;20049;-65
2023/12/25 03:41:11;;;;;;;8.05;1.60;;;9.50;99.90;;;;;;4878580;29;20080;-62
2023/12/25 03:43:53;;;;;;;8.60;1.20;;;9.40;99.90;;;;;;4877092;29;20049;-63
2023/12/25 03:46:21;;;;;;;5.97;1.42;;;9.40;99.90;;;;;;4877491;29;20430;-65
2023/12/25 03:48:50;;;;;;;6.00;0.82;;;9.40;99.90;;;;;;4865945;29;20069;-62
2023/12/25 03:51:19;;;;;;;16.03;4.33;;;9.30;99.90;;;;;;4859632;29;20060;-62
2023/12/25 03:53:47;;;;;;;9.50;1.02;;;9.40;99.90;;;;;;4873967;29;20307;-63
2023/12/25 03:56:16;;;;;;;8.93;0.63;;;9.40;99.90;;;;;;4870858;29;20041;-61
2023/12/25 03:58:45;;;;;;;3.33;1.08;;;9.40;99.90;;;;;;4859187;29;20060;-61
2023/12/25 04:01:13;;;;;;;13.02;2.65;;;9.40;99.90;;;;;;4869307;29;20053;-62
2023/12/25 04:03:41;;;;;;;5.43;0.73;;;9.40;99.90;;;;;;4869149;29;20050;-62
2023/12/25 04:06:09;;;;;;;6.22;1.17;;;9.40;99.90;;;;;;4864123;29;20601;-63
2023/12/25 04:08:37;;;;;;;3.92;0.70;;;9.40;99.90;;;;;;4876801;29;20057;-67
2023/12/25 04:11:05;;;;;;;7.85;1.55;;;9.40;99.90;;;;;;4877972;29;20042;-62
2023/12/25 04:13:34;;;;;;;8.45;1.67;;;9.50;99.90;;;;;;4876335;29;20053;-62
2023/12/25 04:16:03;;;;;;;5.25;1.05;;;9.50;99.90;;;;;;4877209;29;20041;-61
2023/12/25 04:18:32;;;;;;;5.72;0.80;;;9.40;99.90;;;;;;4869522;29;20056;-61
2023/12/25 04:21:00;;;;;;;4.88;1.00;;;9.40;99.90;;;;;;4856916;29;20053;-62
2023/12/25 04:23:28;;;;;;;4.50;0.82;;;9.40;99.90;;;;;;4861084;29;20547;-61
2023/12/25 04:25:55;;;;;;;6.40;0.95;;;9.40;99.90;;;;;;4876866;29;20049;-61
2023/12/25 04:28:23;;;;;;;3.53;0.90;;;9.40;99.90;;;;;;4877055;29;20053;-61
2023/12/25 04:30:51;;;;;;;6.10;1.13;;;9.50;99.90;;;;;;4877134;29;20049;-61
2023/12/25 04:33:19;;;;;;;6.40;0.90;;;9.50;99.90;;;;;;4878249;29;20045;-62
2023/12/25 04:35:48;;;;;;;8.88;1.65;;;9.60;99.90;;;;;;4875777;29;20498;-61
2023/12/25 04:38:16;;;;;;;9.05;1.65;;;9.70;99.90;;;;;;4857912;29;20053;-61
2023/12/25 04:40:44;;;;;;;14.38;1.10;;;9.70;99.90;;;;;;4842364;29;20061;-61
2023/12/25 04:43:12;;;;;;;7.43;0.80;;;9.80;99.90;;;;;;4858507;29;20045;-62
2023/12/25 04:45:40;;;;;;;10.35;1.52;;;9.80;99.90;;;;;;4862310;29;20052;-63
2023/12/25 04:48:18;;;;;;;8.90;1.10;;;9.80;99.90;;;;;;4872764;29;20045;-62
2023/12/25 04:50:47;;;;;;;6.82;0.85;;;9.70;99.90;;;;;;4857898;29;20049;-64
2023/12/25 04:53:15;;;;;;;5.82;1.20;;;9.70;99.90;;;;;;4857587;29;20052;-60
2023/12/25 04:55:43;;;;;;;6.20;1.50;;;9.60;99.90;;;;;;4860503;29;20606;-63
2023/12/25 04:58:11;;;;;;;9.38;0.95;;;9.60;99.90;;;;;;4857772;29;20053;-61
2023/12/25 05:00:38;;;;;;;4.80;0.93;;;9.50;99.90;;;;;;4862939;29;20044;-63
2023/12/25 05:03:07;;;;;;;9.98;1.10;;;9.50;99.90;;;;;;4876246;29;20076;-66
2023/12/25 05:05:35;;;;;;;12.98;1.17;;;9.40;99.90;;;;;;4867250;29;20490;-64
2023/12/25 05:08:05;;;;;;;8.95;1.20;;;9.40;99.90;;;;;;4876410;29;20059;-61
2023/12/25 05:10:33;;;;;;;4.38;0.70;;;9.30;99.90;;;;;;4874280;29;20049;-62
2023/12/25 05:13:01;;;;;;;12.82;1.20;;;9.20;99.90;;;;;;4876456;29;20045;-64
2023/12/25 05:15:29;;;;;;;9.68;1.10;;;9.10;99.90;;;;;;4877578;29;20064;-62
2023/12/25 05:17:58;;;;;;;8.93;0.70;;;9.00;99.90;;;;;;4872636;29;20049;-63
2023/12/25 05:20:27;;;;;;;5.70;1.08;;;9.00;99.90;;;;;;4857522;29;20052;-62
2023/12/25 05:22:55;;;;;;;6.97;1.25;;;8.90;99.90;;;;;;4857278;29;20050;-62
2023/12/25 05:25:23;;;;;;;4.10;0.50;;;8.80;99.90;;;;;;4858354;29;20055;-62
2023/12/25 05:27:51;;;;;;;5.25;0.95;;;8.80;99.90;;;;;;4861274;29;20049;-63
2023/12/25 05:30:20;;;;;;;7.55;0.65;;;8.80;99.90;;;;;;4871908;29;20053;-62
2023/12/25 05:32:48;;;;;;;7.70;1.52;;;8.80;99.90;;;;;;4869262;29;20054;-62
2023/12/25 05:35:16;;;;;;;8.48;1.00;;;8.80;99.90;;;;;;4857556;29;20054;-62
2023/12/25 05:37:44;;;;;;;4.43;0.40;;;8.80;99.90;;;;;;4872267;29;20045;-62
2023/12/25 05:40:13;;;;;;;7.03;1.52;;;8.90;99.90;;;;;;4873979;29;20068;-63
2023/12/25 05:42:41;;;;;;;4.07;1.08;;;8.80;99.90;;;;;;4859699;29;20053;-62
2023/12/25 05:45:09;;;;;;;15.63;1.25;;;8.80;99.90;;;;;;4858281;29;20057;-62
2023/12/25 05:47:39;;;;;;;6.85;1.48;;;8.80;99.90;;;;;;4862211;29;20904;-65
2023/12/25 05:50:08;;;;;;;5.28;0.82;;;8.80;99.90;;;;;;4869706;29;20513;-63
2023/12/25 05:52:38;;;;;;;8.15;1.00;;;8.80;99.90;;;;;;4858323;29;20053;-63
2023/12/25 05:55:06;;;;;;;7.57;1.30;;;8.70;99.90;;;;;;4858468;29;20061;-62
2023/12/25 05:57:34;;;;;;;8.30;1.27;;;8.70;99.90;;;;;;4868986;29;20082;-63
2023/12/25 06:00:03;;;;;;;5.30;0.70;;;8.70;99.90;;;;;;4859497;29;20045;-62
2023/12/25 06:02:39;;;;;;;8.38;1.00;;;8.70;99.90;;;;;;4853246;29;20061;-63
2023/12/25 06:05:07;;;;;;;11.10;1.30;;;8.70;99.90;;;;;;4851277;29;20061;-62
2023/12/25 06:07:36;;;;;;;7.07;1.30;;;8.70;99.90;;;;;;4862604;29;20057;-61
2023/12/25 06:10:05;;;;;;;6.30;0.90;;;8.70;99.90;;;;;;4851499;29;20057;-61
2023/12/25 06:12:32;;;;;;;7.63;1.13;;;8.70;99.90;;;;;;4857118;29;20068;-61
2023/12/25 06:15:03;;;;;;;7.43;1.15;;;8.70;99.90;;;;;;4841208;29;20061;-63
2023/12/25 06:17:32;;;;;;;6.93;1.40;;;8.60;99.90;;;;;;4862792;29;20058;-63
2023/12/25 06:20:00;;;;;;;9.63;1.30;;;8.70;99.90;;;;;;4852030;29;20050;-64
2023/12/25 06:22:43;;;;;;;6.25;1.20;;;8.60;99.90;;;;;;4859535;29;20069;-62
2023/12/25 06:25:13;;;;;;;14.15;1.55;;;8.60;99.90;;;;;;4873190;29;20505;-62
2023/12/25 06:27:41;;;;;;;10.18;1.17;;;8.60;99.90;;;;;;4869508;29;20056;-61
2023/12/25 06:30:25;;;;;;;6.25;1.23;;;8.70;99.90;;;;;;4854853;29;20053;-60
2023/12/25 06:32:54;;;;;;;10.30;1.63;;;8.70;99.90;;;;;;4853361;29;20045;-63
2023/12/25 06:35:23;;;;;;;11.38;1.20;;;8.70;99.90;;;;;;4855124;29;20049;-61
2023/12/25 06:37:51;;;;;;;10.93;1.65;;;8.70;99.90;;;;;;4881225;29;20053;-61
2023/12/25 06:40:23;;;;;;;9.82;2.00;;;8.70;99.90;;;;;;4857125;29;20049;-62
2023/12/25 06:42:51;;;;;;;8.13;1.00;;;8.80;99.90;;;;;;4871218;29;20064;-61
2023/12/25 06:45:21;;;;;;;8.57;1.20;;;8.70;99.90;;;;;;4873087;29;20045;-61
2023/12/25 06:47:49;;;;;;;8.40;1.00;;;8.80;99.90;;;;;;4868878;29;20072;-63
2023/12/25 06:50:18;;;;;;;6.57;1.00;;;8.80;99.90;;;;;;4854898;29;20072;-62
2023/12/25 06:52:46;;;;;;;10.35;1.67;;;8.90;99.90;;;;;;4853844;29;20061;-64
2023/12/25 06:55:15;;;;;;;9.75;1.90;;;8.90;99.90;;;;;;4854426;29;20402;-71
2023/12/25 06:57:44;;;;;;;12.90;2.30;;;8.90;99.90;;;;;;4863375;29;20058;-70
2023/12/25 07:00:13;;;;;;;;;;;8.90;99.90;;;;;;4854510;29;20093;-62
2023/12/25 07:02:41;;;;;;;8.68;1.20;;;8.90;99.90;;;;;;4853856;29;19931;-63
2023/12/25 07:05:09;;;;;;;11.23;1.20;;;8.90;99.90;;;;;;4863131;29;20566;-71
2023/12/25 07:07:37;;;;;;;13.18;2.17;;;9.00;99.90;;;;;;4862245;29;20048;-72
2023/12/25 07:10:06;;;;;;;10.27;1.58;;;9.00;99.90;;;;;;4856027;29;20061;-71
2023/12/25 07:12:35;;;;;;;11.68;1.20;;;9.00;99.90;;;;;;4853998;29;20143;-68
2023/12/25 07:15:04;;;;;;;12.18;1.80;;;9.00;99.90;;;;;;4853760;29;20064;-63
2023/12/25 07:17:34;;;;;;;11.23;1.95;;;8.90;99.90;;;;;;4855633;29;20068;-68
2023/12/25 07:20:02;;;;;;;8.05;1.20;;;8.90;99.90;;;;;;4838908;29;20049;-62
2023/12/25 07:22:31;;;;;;;14.57;1.30;;;8.90;99.90;;;;;;4857289;29;20053;-62
2023/12/25 07:25:05;;;;;;;8.98;1.88;;;8.90;99.90;;;;;;4872607;29;20053;-62
2023/12/25 07:27:36;;;;;;;11.25;2.03;;;8.80;99.90;;;;;;4859646;29;20577;-61
2023/12/25 07:30:06;;;;;;;8.98;1.00;;;8.80;99.90;;;;;;4867736;29;20357;-61
2023/12/25 07:32:34;;;;;;;10.63;1.65;;;8.80;99.90;;;;;;4864329;29;20056;-60
2023/12/25 07:35:03;;;;;;;13.07;1.88;;;8.80;99.90;;;;;;4856720;29;20057;-66
2023/12/25 07:37:31;;;;;;;9.23;1.55;;;8.70;99.90;;;;;;4838685;29;20050;-70
2023/12/25 07:39:59;;;;;;;9.77;1.45;;;8.70;99.90;;;;;;4855042;29;20422;-72
2023/12/25 07:42:27;;;;;;;5.72;1.38;;;8.60;99.90;;;;;;4861286;29;20049;-71
2023/12/25 07:44:55;;;;;;;6.88;1.23;;;8.60;99.90;;;;;;4861186;29;20045;-69
2023/12/25 07:47:23;;;;;;;12.10;2.45;;;8.60;99.90;;;;;;4866450;29;20625;-69
2023/12/25 07:49:52;;;;;;;13.50;1.10;;;8.60;99.90;;;;;;4857016;29;20387;-60
2023/12/25 07:52:20;;;;;;;9.10;0.90;;;8.60;99.90;;;;;;4860974;29;20049;-61
2023/12/25 07:54:48;;;;;;;6.90;1.10;;;8.60;99.90;;;;;;4856952;29;20057;-61
2023/12/25 07:57:16;;;;;;;6.07;0.95;;;8.60;99.90;;;;;;4862853;29;20052;-60
2023/12/25 07:59:44;;;;;;;11.88;1.10;;;8.70;99.90;;;;;;4867524;29;20060;-61
2023/12/25 08:02:12;;;;;;;7.20;1.30;;;8.60;99.90;;;;;;4856505;29;20058;-60
2023/12/25 08:04:40;;;;;;;4.75;1.02;;;8.70;99.90;;;;;;4861359;29;20402;-63
2023/12/25 08:07:08;;;;;;;9.73;1.75;;;8.70;99.90;;;;;;4864012;29;20046;-62
2023/12/25 08:09:36;;;;;;;9.65;1.10;;;8.70;99.90;;;;;;4870038;29;20057;-61
2023/12/25 08:12:05;;;;;;;9.48;1.92;;;8.70;99.90;;;;;;4874036;29;20053;-71
2023/12/25 08:14:33;;;;;;;9.40;1.13;;;8.70;99.90;;;;;;4875316;29;20057;-68
2023/12/25 08:17:01;;;;;;;9.82;1.00;;;8.70;99.90;;;;;;4865872;29;20053;-62
2023/12/25 08:19:29;;;;;;;9.57;1.38;;;8.70;99.90;;;;;;4859816;29;20632;-70
2023/12/25 08:21:57;;;;;;;6.28;1.25;;;8.70;99.90;;;;;;4870321;29;20045;-62
2023/12/25 08:24:27;;;;;;;12.32;2.40;;;8.70;99.90;;;;;;4863272;29;20060;-63
2023/12/25 08:26:55;;;;;;;7.80;1.15;;;8.70;99.90;;;;;;4853638;29;20398;-63
2023/12/25 08:29:24;;;;;;;16.95;2.20;;;8.70;99.90;;;;;;4852794;29;20046;-62
2023/12/25 08:31:52;;;;;;;11.55;1.13;;;8.60;99.90;;;;;;4852956;29;20056;-61
2023/12/25 08:34:25;;;;;;;5.68;1.02;;;8.60;99.90;;;;;;4853305;29;20050;-61
2023/12/25 08:36:53;;;;;;;5.85;1.33;;;8.60;99.90;;;;;;4853481;29;20061;-62
2023/12/25 08:39:21;;;;;;;17.05;1.48;;;8.60;99.90;;;;;;4852716;29;20065;-60
2023/12/25 08:41:49;;;;;;;10.18;1.30;;;8.60;99.90;;;;;;4854043;29;20045;-61
2023/12/25 08:44:18;;;;;;;12.02;1.38;;;8.60;99.90;;;;;;4853539;29;20053;-62
2023/12/25 08:46:46;;;;;;;11.50;1.25;;;8.60;99.90;;;;;;4854422;29;20049;-65
2023/12/25 08:49:14;;;;;;;9.40;1.30;;;8.60;99.90;;;;;;4852464;29;20057;-66
2023/12/25 08:51:42;;;;;;;6.40;0.90;;;8.60;99.90;;;;;;4861213;29;20075;-63
2023/12/25 08:54:10;;;;;;;7.75;1.10;;;8.70;99.90;;;;;;4870943;29;20682;-62
2023/12/25 08:56:38;;;;;;;10.45;1.40;;;8.70;99.90;;;;;;4846919;29;20057;-63
2023/12/25 08:59:06;;;;;;;7.00;0.98;;;8.80;99.90;;;;;;4866933;29;20053;-60
2023/12/25 09:01:33;;;;;;;7.72;1.88;;;8.80;99.90;;;;;;4864332;29;20064;-61
2023/12/25 09:04:02;;;;;;;8.93;1.27;;;8.90;99.90;;;;;;4865870;29;20049;-62
2023/12/25 09:06:30;;;;;;;12.65;1.40;;;8.80;99.90;;;;;;4853821;29;20057;-64
2023/12/25 09:08:58;;;;;;;6.47;1.95;;;8.90;99.90;;;;;;4859528;29;20293;-62
2023/12/25 09:11:26;;;;;;;15.90;8.75;;;8.90;99.90;;;;;;4864229;29;20045;-64
2023/12/25 09:13:54;;;;;;;18.20;8.85;;;8.90;99.90;;;;;;4854942;29;20049;-62
2023/12/25 09:16:22;;;;;;;10.98;3.85;;;9.00;99.90;;;;;;4865519;29;20793;-63
2023/12/25 09:18:50;;;;;;;10.65;4.25;;;9.00;99.90;;;;;;4866124;29;20142;-66
2023/12/25 09:21:18;;;;;;;35.88;4.38;;;9.10;99.90;;;;;;4865904;29;20418;-69
2023/12/25 09:23:47;;;;;;;8.68;2.20;;;9.10;99.90;;;;;;4868820;29;20049;-63
2023/12/25 09:26:20;;;;;;;9.13;1.88;;;9.20;99.90;;;;;;4853396;29;20045;-66
2023/12/25 09:28:50;;;;;;;7.88;1.33;;;9.20;99.90;;;;;;4864738;29;20406;-63
2023/12/25 09:31:18;;;;;;;;;;;9.20;99.90;;;;;;4866585;29;20053;-69
2023/12/25 09:33:46;;;;;;;9.55;1.40;;;9.20;99.90;;;;;;4862642;29;19924;-70
2023/12/25 09:36:14;;;;;;;6.53;1.33;;;9.20;99.90;;;;;;4867892;29;20076;-66
2023/12/25 09:38:42;;;;;;;9.13;1.27;;;9.20;99.90;;;;;;4850203;29;20045;-71
2023/12/25 09:41:11;;;;;;;10.98;1.40;;;9.20;99.90;;;;;;4851844;29;20088;-71
2023/12/25 09:43:39;;;;;;;7.45;1.30;;;9.20;99.90;;;;;;4862307;29;20062;-65
2023/12/25 09:46:10;;;;;;;11.75;1.48;;;9.30;99.90;;;;;;4854941;29;20054;-63
2023/12/25 09:48:39;;;;;;;8.05;1.00;;;9.20;99.90;;;;;;4868609;29;20053;-66
2023/12/25 09:51:09;;;;;;;3.92;0.93;;;9.30;99.90;;;;;;4863203;29;21410;-67
2023/12/25 09:53:38;;;;;;;8.00;1.70;;;9.30;99.90;;;;;;4850707;29;20054;-62
2023/12/25 09:56:08;;;;;;;9.30;1.55;;;9.30;99.90;;;;;;4853042;29;20061;-63
2023/12/25 09:58:37;;;;;;;8.32;1.15;;;9.30;99.90;;;;;;4858417;29;20055;-64
2023/12/25 10:01:05;;;;;;;5.28;1.25;;;9.30;99.90;;;;;;4860349;29;20053;-65
2023/12/25 10:03:40;;;;;;;8.13;1.48;;;9.30;99.90;;;;;;4858600;29;20470;-62
2023/12/25 10:06:09;;;;;;;6.22;1.23;;;9.30;99.90;;;;;;4859021;29;20490;-61
2023/12/25 10:08:39;;;;;;;5.57;1.10;;;9.40;99.90;;;;;;4870588;29;20053;-71
2023/12/25 10:11:13;;;;;;;8.77;1.85;;;9.40;99.90;;;;;;4873183;29;20045;-66
2023/12/25 10:13:43;;;;;;;8.13;1.65;;;9.40;99.90;;;;;;4875544;29;20049;-66
2023/12/25 10:16:12;;;;;;;10.88;1.30;;;9.40;99.90;;;;;;4865384;29;20405;-63
2023/12/25 10:18:40;;;;;;;6.18;0.80;;;9.40;99.90;;;;;;4860953;29;20552;-62
2023/12/25 10:21:09;;;;;;;15.02;1.63;;;9.40;99.90;;;;;;4862377;29;20521;-62
2023/12/25 10:23:38;;;;;;;10.00;1.40;;;9.40;99.90;;;;;;4873507;29;20651;-63
2023/12/25 10:26:06;;;;;;;11.00;1.23;;;9.50;99.90;;;;;;4860225;29;20053;-62
2023/12/25 10:28:34;;;;;;;6.22;1.60;;;9.50;99.90;;;;;;4860118;29;20056;-62
2023/12/25 10:31:07;;;;;;;6.88;1.10;;;9.60;99.90;;;;;;4869768;29;20382;-63
2023/12/25 10:33:36;;;;;;;7.53;1.67;;;9.60;99.90;;;;;;4876242;29;20045;-63
2023/12/25 10:36:07;;;;;;;10.02;2.08;;;9.70;99.90;;;;;;4864614;29;20045;-70
2023/12/25 10:38:37;;;;;;;8.90;1.35;;;9.70;99.90;;;;;;4862244;29;20045;-62
2023/12/25 10:41:18;;;;;;;14.38;1.55;;;9.80;99.90;;;;;;4857581;29;20053;-64
2023/12/25 10:43:51;;;;;;;7.78;1.25;;;9.90;99.90;;;;;;4856638;29;20050;-62
2023/12/25 10:46:21;;;;;;;8.88;1.83;;;9.90;99.90;;;;;;4866342;29;20046;-62
2023/12/25 10:48:51;;;;;;;;;;;10.00;99.90;;;;;;4867568;29;20992;-65
2023/12/25 10:51:46;;;;;;;9.00;1.98;;;9.90;99.90;;;;;;4869809;29;20296;-66
2023/12/25 10:54:15;;;;;;;15.80;2.10;;;10.00;99.90;;;;;;4861029;29;20487;-62
2023/12/25 10:56:45;;;;;;;10.93;1.25;;;10.00;99.90;;;;;;4861969;29;20075;-62
2023/12/25 10:59:21;;;;;;;8.77;1.38;;;10.00;99.90;;;;;;4863769;29;20501;-63
2023/12/25 11:01:51;;;;;;;11.40;1.83;;;10.00;99.90;;;;;;4858541;29;20533;-62
2023/12/25 11:04:20;;;;;;;11.75;2.35;;;10.10;99.90;;;;;;4861183;29;20076;-62
2023/12/25 11:06:49;;;;;;;9.73;1.13;;;10.10;99.90;;;;;;4867956;29;20425;-63
2023/12/25 11:09:20;;;;;;;9.83;1.53;;;10.10;99.90;;;;;;4865586;29;20057;-62
2023/12/25 11:11:48;;;;;;;6.50;1.10;;;10.10;99.90;;;;;;4875194;29;20065;-62
2023/12/25 11:14:16;;;;;;;14.15;1.55;;;10.10;99.90;;;;;;4862238;29;20474;-62
2023/12/25 11:16:46;;;;;;;15.80;1.67;;;10.10;99.90;;;;;;4856973;29;20585;-62
2023/12/25 11:19:13;;;;;;;16.67;1.80;;;10.10;99.90;;;;;;4860902;29;20402;-62
2023/12/25 11:21:41;;;;;;;8.20;1.20;;;10.10;99.90;;;;;;4860744;29;20061;-62
2023/12/25 11:24:12;;;;;;;10.77;1.40;;;10.10;99.90;;;;;;4859367;29;20053;-62
2023/12/25 11:26:42;;;;;;;12.63;1.83;;;10.10;99.90;;;;;;4869395;29;20061;-62
2023/12/25 11:29:12;;;;;;;10.52;2.50;;;10.10;99.90;;;;;;4861278;29;20060;-62
2023/12/25 11:31:43;;;;;;;13.43;1.42;;;10.10;99.90;;;;;;4855948;29;20045;-62
2023/12/25 11:34:20;;;;;;;11.85;1.63;;;10.10;99.90;;;;;;4868764;29;20045;-62
2023/12/25 11:36:51;;;;;;;15.77;1.98;;;10.00;99.90;;;;;;4857219;29;20061;-62
2023/12/25 11:39:23;;;;;;;9.50;1.98;;;10.00;99.90;;;;;;4854175;29;20146;-61
2023/12/25 11:41:50;;;;;;;13.23;2.65;;;10.00;99.90;;;;;;4863976;29;20538;-62
2023/12/25 11:44:29;;;;;;;11.27;2.00;;;10.00;99.90;;;;;;4862086;29;20049;-62
2023/12/25 11:47:02;;;;;;;10.73;1.40;;;10.00;99.90;;;;;;4861509;29;20407;-62
2023/12/25 11:49:39;;;;;;;10.88;1.70;;;10.00;99.90;;;;;;4853690;29;20061;-62
2023/12/25 11:52:07;;;;;;;10.15;1.25;;;10.00;99.90;;;;;;4861408;29;20064;-62
2023/12/25 11:54:38;;;;;;;13.13;1.70;;;10.00;99.90;;;;;;4862081;29;20052;-64
2023/12/25 11:57:18;;;;;;;18.70;2.25;;;10.10;99.90;;;;;;4865888;29;20521;-63
2023/12/25 11:59:46;;;;;;;17.33;1.65;;;10.10;99.90;;;;;;4858156;29;20050;-62
2023/12/25 12:02:16;;;;;;;10.40;2.60;;;10.10;99.90;;;;;;4855845;29;20054;-63
2023/12/25 12:04:44;;;;;;;14.95;1.75;;;10.10;99.90;;;;;;4858816;29;20052;-65
2023/12/25 12:07:14;;;;;;;8.45;1.13;;;10.20;99.90;;;;;;4859956;29;21467;-62
2023/12/25 12:09:42;;;;;;;17.25;1.95;;;10.20;99.90;;;;;;4857661;29;20057;-63
2023/12/25 12:12:10;;;;;;;9.60;1.17;;;10.20;99.90;;;;;;4860865;29;20079;-62
2023/12/25 12:14:38;;;;;;;14.48;1.85;;;10.20;99.90;;;;;;4861820;29;20405;-63
2023/12/25 12:17:05;;;;;;;15.90;1.65;;;10.20;99.90;;;;;;4859682;29;20061;-62
2023/12/25 12:19:34;;;;;;;11.93;1.80;;;10.20;99.90;;;;;;4859436;29;20387;-60
2023/12/25 12:22:02;;;;;;;9.63;1.23;;;10.30;99.90;;;;;;4861848;29;20049;-63
2023/12/25 12:24:31;;;;;;;10.77;1.67;;;10.30;99.90;;;;;;4863878;29;20037;-67
2023/12/25 12:27:04;;;;;;;8.55;1.38;;;10.30;99.90;;;;;;4861994;29;20045;-63
2023/12/25 12:29:32;;;;;;;10.20;1.05;;;10.30;99.90;;;;;;4858415;29;20056;-67
2023/12/25 12:32:02;;;;;;;12.63;1.58;;;10.30;99.90;;;;;;4857323;29;20066;-65
2023/12/25 12:34:30;;;;;;;8.77;1.30;;;10.30;99.90;;;;;;4862020;29;20045;-63
2023/12/25 12:37:00;;;;;;;11.07;1.67;;;10.40;99.90;;;;;;4861744;29;20405;-71
2023/12/25 12:39:27;;;;;;;11.27;1.38;;;10.40;99.90;;;;;;4857887;29;20045;-63
2023/12/25 12:41:57;;;;;;;9.02;1.48;;;10.40;99.90;;;;;;4858365;29;20060;-66
2023/12/25 12:44:27;;;;;;;14.35;1.80;;;10.40;99.90;;;;;;4857960;29;20057;-65
2023/12/25 12:46:55;;;;;;;10.75;1.33;;;10.40;99.90;;;;;;4865555;29;20060;-67
2023/12/25 12:49:24;;;;;;;7.68;1.25;;;10.40;99.90;;;;;;4860923;29;20057;-67
2023/12/25 12:51:54;;;;;;;10.68;1.45;;;10.40;99.90;;;;;;4861955;29;20053;-70
2023/12/25 12:54:23;;;;;;;15.45;1.65;;;10.40;99.90;;;;;;4857582;29;20064;-65
2023/12/25 12:56:51;;;;;;;15.30;2.13;;;10.40;99.90;;;;;;4858466;29;20487;-63
2023/12/25 12:59:20;;;;;;;15.75;1.67;;;10.40;99.90;;;;;;4857392;29;20050;-62